Time;durP1;ratioP1;P1;durP2;ratioP2;P2;SDS_P1;SDS_P2;PMS_P1;PMS_P2;Temp;Humidity;BMP_temperature;BMP_pressure;BME280_temperature;BME280_humidity;BME280_pressure;Samples;Min_cycle;Max_cycle;Signal;HPM_P1;HPM_P2
2021/01/01 00:00:09;;;;;;;150.53;56.53;;;;;;;;;;5072845;28;20185;-80
2021/01/01 00:02:34;;;;;;;127.87;51.97;;;;;;;;;;5071259;28;20532;-81
2021/01/01 00:04:59;;;;;;;130.00;51.23;;;;;;;;;;5072467;28;20206;-81
2021/01/01 00:07:25;;;;;;;103.07;43.50;;;;;;;;;;5071757;28;20203;-82
2021/01/01 00:09:50;;;;;;;104.53;44.13;;;;;;;;;;5080294;28;20198;-81
2021/01/01 00:12:18;;;;;;;104.77;45.53;;;;;;;;;;5092199;28;20202;-82
2021/01/01 00:14:43;;;;;;;109.70;47.37;;;;;;;;;;5073726;28;20629;-81
2021/01/01 00:17:08;;;;;;;119.77;49.30;;;;;;;;;;5090809;28;20685;-81
2021/01/01 00:19:33;;;;;;;119.57;51.40;;;;;;;;;;5091990;28;20574;-81
2021/01/01 00:22:01;;;;;;;127.23;53.63;;;;;;;;;;5091945;28;20170;-81
2021/01/01 00:24:26;;;;;;;126.27;56.13;;;;;;;;;;5091980;28;20177;-81
2021/01/01 00:26:52;;;;;;;115.63;52.83;;;;;;;;;;5085972;28;20175;-81
2021/01/01 00:29:17;;;;;;;220.03;92.33;;;;;;;;;;5072295;28;20202;-81
2021/01/01 00:31:43;;;;;;;163.10;69.73;;;;;;;;;;5071323;28;20171;-81
2021/01/01 00:34:08;;;;;;;172.93;75.70;;;;;;;;;;5072228;28;20171;-81
2021/01/01 00:36:34;;;;;;;158.07;69.57;;;;;;;;;;5085268;28;20248;-81
2021/01/01 00:38:59;;;;;;;140.40;65.57;;;;;;;;;;5090479;28;20633;-82
2021/01/01 00:41:26;;;;;;;111.83;51.53;;;;;;;;;;5070859;28;20175;-81
2021/01/01 00:43:52;;;;;;;136.70;56.30;;;;;;;;;;5071952;28;20171;-83
2021/01/01 00:46:18;;;;;;;102.93;47.00;;;;;;;;;;5071823;28;20618;-81
2021/01/01 00:48:43;;;;;;;89.23;43.53;;;;;;;;;;5071787;28;20214;-81
2021/01/01 00:51:08;;;;;;;96.80;43.97;;;;;;;;;;5071747;28;20171;-81
2021/01/01 00:53:34;;;;;;;85.43;38.17;;;;;;;;;;5072130;28;20178;-81
2021/01/01 00:55:59;;;;;;;84.17;37.40;;;;;;;;;;5071774;28;20242;-81
2021/01/01 00:58:24;;;;;;;78.47;37.40;;;;;;;;;;5071414;28;20187;-81
2021/01/01 01:00:50;;;;;;;77.47;37.73;;;;;;;;;;5072215;28;20183;-81
2021/01/01 01:03:15;;;;;;;191.47;72.30;;;;;;;;;;5071145;28;20223;-81
2021/01/01 01:05:40;;;;;;;230.97;71.97;;;;;;;;;;5071632;28;20648;-81
2021/01/01 01:08:06;;;;;;;173.50;60.10;;;;;;;;;;5071178;28;20736;-81
2021/01/01 01:10:31;;;;;;;110.10;44.63;;;;;;;;;;5071253;28;20729;-82
2021/01/01 01:12:56;;;;;;;99.57;43.83;;;;;;;;;;5071492;28;20254;-81
2021/01/01 01:15:22;;;;;;;96.90;41.47;;;;;;;;;;5071753;28;20242;-81
2021/01/01 01:17:47;;;;;;;50.57;26.67;;;;;;;;;;5071547;28;20206;-81
2021/01/01 01:20:12;;;;;;;47.37;25.17;;;;;;;;;;5071439;28;20638;-81
2021/01/01 01:22:38;;;;;;;47.63;25.27;;;;;;;;;;5071518;28;20487;-81
2021/01/01 01:25:03;;;;;;;71.70;33.23;;;;;;;;;;5071375;28;20166;-81
2021/01/01 01:27:29;;;;;;;76.53;34.27;;;;;;;;;;5074816;28;20191;-81
2021/01/01 01:29:54;;;;;;;102.83;41.83;;;;;;;;;;5075702;28;20171;-82
2021/01/01 01:32:19;;;;;;;74.17;34.87;;;;;;;;;;5075468;28;20175;-81
2021/01/01 01:34:45;;;;;;;64.83;32.97;;;;;;;;;;5075619;28;20206;-81
2021/01/01 01:37:10;;;;;;;49.97;26.30;;;;;;;;;;5075318;28;20618;-81
2021/01/01 01:39:35;;;;;;;43.77;22.70;;;;;;;;;;5075038;28;20171;-81
2021/01/01 01:42:01;;;;;;;43.73;22.97;;;;;;;;;;5075296;28;20163;-81
2021/01/01 01:44:26;;;;;;;49.73;25.40;;;;;;;;;;5075031;28;20175;-83
2021/01/01 01:46:52;;;;;;;44.40;22.93;;;;;;;;;;5075455;28;20171;-81
2021/01/01 01:49:17;;;;;;;38.27;21.63;;;;;;;;;;5075137;28;20671;-81
2021/01/01 01:51:47;;;;;;;37.47;21.17;;;;;;;;;;5075144;28;20533;-82
2021/01/01 01:54:12;;;;;;;38.30;20.77;;;;;;;;;;5075028;28;20652;-81
2021/01/01 01:56:38;;;;;;;38.43;20.73;;;;;;;;;;5074750;28;20167;-81
2021/01/01 01:59:03;;;;;;;34.53;20.20;;;;;;;;;;5075042;28;20176;-81
2021/01/01 02:01:29;;;;;;;39.70;20.97;;;;;;;;;;5074927;28;20167;-81
2021/01/01 02:03:55;;;;;;;42.03;22.33;;;;;;;;;;5074922;28;20235;-81
2021/01/01 02:06:21;;;;;;;88.97;38.60;;;;;;;;;;5074887;28;20216;-81
2021/01/01 02:08:48;;;;;;;98.57;41.93;;;;;;;;;;5074572;28;20219;-81
2021/01/01 02:11:13;;;;;;;99.50;46.93;;;;;;;;;;5074766;28;20175;-81
2021/01/01 02:13:40;;;;;;;95.20;44.73;;;;;;;;;;5074476;28;20220;-81
2021/01/01 02:16:06;;;;;;;98.90;44.07;;;;;;;;;;5056934;28;20546;-81
2021/01/01 02:18:36;;;;;;;52.47;25.17;;;;;;;;;;5074627;28;20640;-81
2021/01/01 02:21:01;;;;;;;44.17;23.17;;;;;;;;;;5074491;28;20167;-81
2021/01/01 02:23:27;;;;;;;43.97;23.03;;;;;;;;;;5074578;28;20182;-81
2021/01/01 02:25:52;;;;;;;43.80;22.97;;;;;;;;;;5074493;28;20174;-81
2021/01/01 02:28:18;;;;;;;44.87;23.47;;;;;;;;;;5074468;28;20262;-81
2021/01/01 02:30:43;;;;;;;47.07;24.30;;;;;;;;;;5074184;28;20262;-81
2021/01/01 02:33:08;;;;;;;46.43;24.70;;;;;;;;;;5074130;28;20167;-81
2021/01/01 02:35:34;;;;;;;50.87;26.40;;;;;;;;;;5074267;28;20232;-81
2021/01/01 02:37:59;;;;;;;49.67;26.60;;;;;;;;;;5073622;28;20245;-81
2021/01/01 02:40:24;;;;;;;54.07;27.17;;;;;;;;;;5073891;28;20527;-82
2021/01/01 02:42:50;;;;;;;62.13;31.07;;;;;;;;;;5074204;28;20182;-81
2021/01/01 02:45:15;;;;;;;64.67;32.07;;;;;;;;;;5073975;28;20259;-81
2021/01/01 02:47:40;;;;;;;54.97;28.43;;;;;;;;;;5074215;28;20233;-81
2021/01/01 02:50:06;;;;;;;55.90;28.53;;;;;;;;;;5055976;28;20237;-80
2021/01/01 02:52:31;;;;;;;49.57;23.73;;;;;;;;;;5074322;28;20171;-82
2021/01/01 02:54:58;;;;;;;41.40;22.20;;;;;;;;;;5073903;28;20171;-81
2021/01/01 02:57:23;;;;;;;50.33;24.13;;;;;;;;;;5073585;28;20223;-81
2021/01/01 02:59:49;;;;;;;46.00;24.40;;;;;;;;;;5073964;28;20202;-81
2021/01/01 03:02:14;;;;;;;45.43;24.43;;;;;;;;;;5073734;28;20224;-82
2021/01/01 03:04:39;;;;;;;53.53;25.47;;;;;;;;;;5073841;28;20626;-81
2021/01/01 03:07:05;;;;;;;52.80;26.30;;;;;;;;;;5073354;28;20177;-81
2021/01/01 03:09:30;;;;;;;50.40;25.57;;;;;;;;;;5073809;28;20195;-81
2021/01/01 03:11:55;;;;;;;43.60;21.47;;;;;;;;;;5074066;28;20618;-81
2021/01/01 03:14:21;;;;;;;40.30;21.17;;;;;;;;;;5073524;28;20194;-81
2021/01/01 03:16:46;;;;;;;41.67;21.53;;;;;;;;;;5074142;28;20171;-81
2021/01/01 03:19:11;;;;;;;41.53;21.00;;;;;;;;;;5074429;28;20221;-81
2021/01/01 03:21:37;;;;;;;42.43;20.27;;;;;;;;;;5074007;28;20175;-81
2021/01/01 03:24:02;;;;;;;43.23;21.27;;;;;;;;;;5074649;28;20167;-81
2021/01/01 03:26:27;;;;;;;51.40;25.13;;;;;;;;;;5074064;28;20634;-81
2021/01/01 03:28:52;;;;;;;42.40;22.37;;;;;;;;;;5074095;28;20199;-81
2021/01/01 03:31:18;;;;;;;47.53;24.23;;;;;;;;;;5074284;28;20178;-81
2021/01/01 03:33:43;;;;;;;43.57;22.83;;;;;;;;;;5074144;28;20171;-81
2021/01/01 03:36:10;;;;;;;43.17;21.57;;;;;;;;;;5074336;28;20227;-81
2021/01/01 03:38:35;;;;;;;46.33;21.50;;;;;;;;;;5074327;28;20301;-81
2021/01/01 03:41:00;;;;;;;43.90;22.50;;;;;;;;;;5073893;28;20369;-81
2021/01/01 03:43:26;;;;;;;46.27;22.07;;;;;;;;;;5073960;28;20515;-81
2021/01/01 03:45:51;;;;;;;46.67;22.90;;;;;;;;;;5073839;28;20501;-81
2021/01/01 03:48:16;;;;;;;45.20;22.27;;;;;;;;;;5073435;28;20213;-81
2021/01/01 03:50:42;;;;;;;43.13;22.67;;;;;;;;;;5073519;28;20262;-81
2021/01/01 03:53:07;;;;;;;40.40;20.53;;;;;;;;;;5074072;28;20175;-82
2021/01/01 03:55:33;;;;;;;49.53;23.03;;;;;;;;;;5073622;28;20170;-81
2021/01/01 03:57:58;;;;;;;43.60;20.83;;;;;;;;;;5073927;28;20182;-81
2021/01/01 04:00:23;;;;;;;41.57;21.43;;;;;;;;;;5073338;28;20175;-82
2021/01/01 04:02:49;;;;;;;41.60;20.53;;;;;;;;;;5073332;28;20172;-81
2021/01/01 04:05:14;;;;;;;46.20;21.90;;;;;;;;;;5073344;28;20155;-82
2021/01/01 04:07:39;;;;;;;35.57;19.67;;;;;;;;;;5073057;28;20202;-82
2021/01/01 04:10:05;;;;;;;39.70;21.53;;;;;;;;;;5073707;28;20638;-81
2021/01/01 04:12:30;;;;;;;41.37;20.07;;;;;;;;;;5073418;28;20175;-81
2021/01/01 04:14:56;;;;;;;38.33;18.37;;;;;;;;;;5073058;28;20533;-82
2021/01/01 04:17:21;;;;;;;36.90;19.13;;;;;;;;;;5073225;28;20163;-81
2021/01/01 04:19:46;;;;;;;42.10;19.80;;;;;;;;;;5073267;28;20526;-82
2021/01/01 04:22:11;;;;;;;44.00;20.43;;;;;;;;;;5072945;28;20167;-82
2021/01/01 04:24:37;;;;;;;40.13;21.27;;;;;;;;;;5073399;28;20163;-82
2021/01/01 04:27:02;;;;;;;43.20;20.57;;;;;;;;;;5073058;28;20174;-81
2021/01/01 04:29:27;;;;;;;39.30;19.60;;;;;;;;;;5054975;28;20218;-81
2021/01/01 04:31:53;;;;;;;41.70;19.80;;;;;;;;;;5072720;28;20172;-81
2021/01/01 04:34:18;;;;;;;38.87;18.80;;;;;;;;;;5072724;28;20174;-82
2021/01/01 04:36:43;;;;;;;40.37;19.40;;;;;;;;;;5072949;28;20175;-82
2021/01/01 04:39:09;;;;;;;39.43;19.60;;;;;;;;;;5072904;28;20307;-81
2021/01/01 04:41:35;;;;;;;37.60;17.87;;;;;;;;;;5072538;28;20190;-82
2021/01/01 04:44:00;;;;;;;38.27;17.53;;;;;;;;;;5072906;28;20215;-81
2021/01/01 04:46:25;;;;;;;36.03;17.40;;;;;;;;;;5072545;28;20792;-81
2021/01/01 04:48:51;;;;;;;36.90;18.60;;;;;;;;;;5072776;28;20285;-81
2021/01/01 04:51:16;;;;;;;40.70;17.67;;;;;;;;;;5054863;28;20179;-82
2021/01/01 04:53:42;;;;;;;36.30;17.23;;;;;;;;;;5072701;28;20198;-84
2021/01/01 04:56:08;;;;;;;41.13;18.37;;;;;;;;;;5072716;28;20171;-81
2021/01/01 04:58:34;;;;;;;38.33;19.10;;;;;;;;;;5072455;28;20182;-81
2021/01/01 05:00:59;;;;;;;38.83;17.60;;;;;;;;;;5071944;28;20164;-81
2021/01/01 05:03:25;;;;;;;40.20;18.13;;;;;;;;;;5072458;28;20269;-81
2021/01/01 05:05:51;;;;;;;37.73;18.13;;;;;;;;;;5072306;28;20641;-81
2021/01/01 05:08:17;;;;;;;39.17;19.47;;;;;;;;;;5072631;28;20273;-81
2021/01/01 05:10:43;;;;;;;44.97;18.80;;;;;;;;;;5072435;28;20602;-81
2021/01/01 05:13:12;;;;;;;38.97;18.90;;;;;;;;;;5072565;28;20572;-81
2021/01/01 05:15:38;;;;;;;40.53;19.43;;;;;;;;;;5072501;28;20183;-81
2021/01/01 05:18:17;;;;;;;37.07;17.93;;;;;;;;;;5072253;28;20179;-81
2021/01/01 05:20:42;;;;;;;37.57;18.60;;;;;;;;;;5072744;28;20262;-81
2021/01/01 05:23:17;;;;;;;38.70;18.43;;;;;;;;;;5072432;28;20256;-81
2021/01/01 05:25:42;;;;;;;38.87;18.80;;;;;;;;;;5072782;28;20172;-81
2021/01/01 05:28:12;;;;;;;40.67;19.40;;;;;;;;;;5071930;28;20199;-81
2021/01/01 05:30:38;;;;;;;36.60;18.33;;;;;;;;;;5072058;28;20565;-81
2021/01/01 05:33:03;;;;;;;38.10;18.07;;;;;;;;;;5072073;28;20167;-81
2021/01/01 05:35:30;;;;;;;37.57;17.90;;;;;;;;;;5072117;28;20274;-81
2021/01/01 05:37:55;;;;;;;33.13;17.63;;;;;;;;;;5072397;28;20292;-81
2021/01/01 05:40:30;;;;;;;36.97;17.77;;;;;;;;;;5072126;28;20167;-81
2021/01/01 05:42:56;;;;;;;38.27;18.77;;;;;;;;;;5072415;28;20170;-82
2021/01/01 05:45:25;;;;;;;35.47;17.50;;;;;;;;;;5072000;28;20168;-82
2021/01/01 05:48:03;;;;;;;31.63;16.23;;;;;;;;;;5072598;28;20249;-82
2021/01/01 05:50:29;;;;;;;33.50;16.77;;;;;;;;;;5072174;28;20211;-81
2021/01/01 05:53:09;;;;;;;33.63;16.17;;;;;;;;;;5071759;28;20573;-81
2021/01/01 05:55:34;;;;;;;31.53;15.97;;;;;;;;;;5072404;28;20209;-81
2021/01/01 05:58:00;;;;;;;31.80;15.20;;;;;;;;;;5071832;28;20175;-82
2021/01/01 06:00:25;;;;;;;33.33;15.73;;;;;;;;;;5071769;28;20241;-82
2021/01/01 06:02:53;;;;;;;39.20;18.13;;;;;;;;;;5071690;28;20235;-82
2021/01/01 06:05:19;;;;;;;42.80;22.70;;;;;;;;;;5071932;28;20164;-82
2021/01/01 06:07:45;;;;;;;38.57;19.70;;;;;;;;;;5071949;28;20707;-81
2021/01/01 06:10:11;;;;;;;36.40;18.83;;;;;;;;;;5071910;28;20206;-81
2021/01/01 06:12:37;;;;;;;34.60;17.70;;;;;;;;;;5072356;28;20614;-81
2021/01/01 06:15:04;;;;;;;33.73;17.30;;;;;;;;;;5075777;28;20167;-81
2021/01/01 06:17:33;;;;;;;30.20;15.73;;;;;;;;;;5075319;28;20514;-82
2021/01/01 06:19:59;;;;;;;34.33;15.93;;;;;;;;;;5075565;28;20172;-82
2021/01/01 06:22:24;;;;;;;30.47;15.07;;;;;;;;;;5075527;28;20174;-82
2021/01/01 06:24:53;;;;;;;29.97;15.57;;;;;;;;;;5074950;28;20266;-84
2021/01/01 06:27:19;;;;;;;29.33;15.37;;;;;;;;;;5075725;28;20167;-81
2021/01/01 06:29:46;;;;;;;31.93;17.77;;;;;;;;;;5075391;28;20175;-81
2021/01/01 06:32:12;;;;;;;29.20;16.67;;;;;;;;;;5057347;28;20186;-81
2021/01/01 06:34:37;;;;;;;29.90;16.00;;;;;;;;;;5075706;28;20171;-81
2021/01/01 06:37:03;;;;;;;30.67;16.97;;;;;;;;;;5075347;28;20708;-81
2021/01/01 06:39:37;;;;;;;37.77;18.40;;;;;;;;;;5075160;28;20528;-81
2021/01/01 06:42:03;;;;;;;29.37;15.27;;;;;;;;;;5075245;28;20170;-81
2021/01/01 06:44:42;;;;;;;32.50;16.93;;;;;;;;;;5075203;28;20240;-81
2021/01/01 06:47:08;;;;;;;28.27;16.20;;;;;;;;;;5074879;28;20258;-81
2021/01/01 06:49:35;;;;;;;30.70;15.77;;;;;;;;;;5074959;28;20198;-81
2021/01/01 06:52:09;;;;;;;26.23;14.07;;;;;;;;;;5074991;28;20179;-81
2021/01/01 06:54:52;;;;;;;27.37;15.07;;;;;;;;;;5074919;28;20254;-81
2021/01/01 06:57:17;;;;;;;27.60;13.63;;;;;;;;;;5075166;28;20553;-81
2021/01/01 06:59:42;;;;;;;27.83;14.70;;;;;;;;;;5074550;28;20171;-81
2021/01/01 07:02:19;;;;;;;26.33;13.77;;;;;;;;;;5074891;28;20171;-81
2021/01/01 07:04:48;;;;;;;25.57;14.80;;;;;;;;;;5074475;28;20268;-81
2021/01/01 07:07:33;;;;;;;29.33;15.23;;;;;;;;;;5074439;28;20179;-81
2021/01/01 07:09:58;;;;;;;27.40;14.17;;;;;;;;;;5074794;28;20226;-81
2021/01/01 07:12:23;;;;;;;27.23;14.67;;;;;;;;;;5074602;28;20622;-82
2021/01/01 07:14:49;;;;;;;31.37;15.40;;;;;;;;;;5074722;28;20174;-81
2021/01/01 07:17:14;;;;;;;28.63;15.70;;;;;;;;;;5074301;28;20171;-82
2021/01/01 07:19:39;;;;;;;25.37;14.23;;;;;;;;;;5074269;28;20167;-82
2021/01/01 07:22:05;;;;;;;26.70;15.00;;;;;;;;;;5074452;28;20649;-81
2021/01/01 07:24:30;;;;;;;28.70;14.53;;;;;;;;;;5073656;28;20254;-81
2021/01/01 07:26:55;;;;;;;32.97;15.97;;;;;;;;;;5074357;28;20263;-82
2021/01/01 07:29:23;;;;;;;37.53;20.27;;;;;;;;;;5072421;28;20210;-82
2021/01/01 07:31:49;;;;;;;39.90;19.50;;;;;;;;;;5065168;28;20178;-81
2021/01/01 07:34:15;;;;;;;32.63;16.47;;;;;;;;;;5081182;28;20175;-82
2021/01/01 07:36:40;;;;;;;28.10;14.23;;;;;;;;;;5066718;28;20213;-80
2021/01/01 07:39:07;;;;;;;28.30;16.47;;;;;;;;;;5064736;28;20618;-81
2021/01/01 07:41:32;;;;;;;32.57;16.43;;;;;;;;;;5063192;28;20186;-81
2021/01/01 07:43:58;;;;;;;30.40;16.30;;;;;;;;;;5061489;28;20622;-81
2021/01/01 07:46:23;;;;;;;40.23;20.00;;;;;;;;;;5062484;28;20269;-81
2021/01/01 07:48:54;;;;;;;44.00;23.63;;;;;;;;;;5064308;28;20342;-81
2021/01/01 07:51:20;;;;;;;31.60;17.07;;;;;;;;;;5060619;28;20212;-81
2021/01/01 07:53:45;;;;;;;30.93;15.33;;;;;;;;;;5063728;28;20290;-81
2021/01/01 07:56:10;;;;;;;28.07;13.97;;;;;;;;;;5054270;28;20310;-82
2021/01/01 07:58:36;;;;;;;27.43;14.40;;;;;;;;;;5054456;28;20221;-82
2021/01/01 08:01:03;;;;;;;36.63;19.60;;;;;;;;;;5053917;28;20543;-82
2021/01/01 08:03:31;;;;;;;35.73;18.33;;;;;;;;;;5053745;28;20224;-82
2021/01/01 08:05:56;;;;;;;29.77;14.83;;;;;;;;;;5053589;28;20222;-83
2021/01/01 08:08:23;;;;;;;31.60;16.73;;;;;;;;;;5054868;28;20654;-82
2021/01/01 08:10:50;;;;;;;35.53;16.97;;;;;;;;;;5074033;28;20541;-80
2021/01/01 08:13:16;;;;;;;73.33;43.63;;;;;;;;;;5074187;28;20576;-81
2021/01/01 08:15:42;;;;;;;30.83;16.00;;;;;;;;;;5074484;28;20236;-81
2021/01/01 08:18:15;;;;;;;31.20;15.57;;;;;;;;;;5056691;28;20618;-80
2021/01/01 08:20:41;;;;;;;27.40;14.90;;;;;;;;;;5054455;28;20191;-81
2021/01/01 08:23:09;;;;;;;30.97;16.33;;;;;;;;;;5057126;28;20176;-82
2021/01/01 08:25:35;;;;;;;58.83;38.57;;;;;;;;;;5054264;28;20211;-80
2021/01/01 08:28:01;;;;;;;42.00;24.33;;;;;;;;;;5074205;28;20195;-80
2021/01/01 08:30:27;;;;;;;27.90;14.33;;;;;;;;;;5074563;28;20175;-81
2021/01/01 08:32:53;;;;;;;29.00;14.90;;;;;;;;;;5074586;28;20536;-80
2021/01/01 08:35:19;;;;;;;27.50;15.00;;;;;;;;;;5073382;28;20163;-81
2021/01/01 08:37:45;;;;;;;31.03;16.00;;;;;;;;;;5074257;28;20260;-81
2021/01/01 08:40:11;;;;;;;29.53;16.87;;;;;;;;;;5073798;28;20175;-81
2021/01/01 08:42:37;;;;;;;43.47;23.73;;;;;;;;;;5074129;28;20233;-81
2021/01/01 08:45:06;;;;;;;39.63;22.00;;;;;;;;;;5080051;28;20174;-81
2021/01/01 08:47:50;;;;;;;33.53;18.93;;;;;;;;;;5093799;28;20174;-80
2021/01/01 08:50:19;;;;;;;32.53;17.40;;;;;;;;;;5093986;28;20579;-81
2021/01/01 08:52:45;;;;;;;39.37;22.63;;;;;;;;;;5094258;28;20617;-81
2021/01/01 08:55:11;;;;;;;40.23;22.83;;;;;;;;;;5094215;28;20204;-80
2021/01/01 08:57:36;;;;;;;39.90;21.50;;;;;;;;;;5094202;28;20159;-80
2021/01/01 09:00:03;;;;;;;41.37;23.63;;;;;;;;;;5092720;28;20265;-81
2021/01/01 09:02:28;;;;;;;57.10;33.93;;;;;;;;;;5093324;28;20174;-81
2021/01/01 09:04:55;;;;;;;42.40;22.87;;;;;;;;;;5095297;28;20227;-80
2021/01/01 09:07:21;;;;;;;33.50;17.00;;;;;;;;;;5094218;28;20516;-80
2021/01/01 09:09:47;;;;;;;36.83;21.30;;;;;;;;;;5093735;28;20194;-80
2021/01/01 09:12:19;;;;;;;50.13;28.87;;;;;;;;;;5080256;28;20628;-80
2021/01/01 09:14:49;;;;;;;53.70;32.93;;;;;;;;;;5073817;28;20171;-81
2021/01/01 09:17:15;;;;;;;38.63;23.97;;;;;;;;;;5073361;28;20510;-81
2021/01/01 09:19:40;;;;;;;35.87;19.43;;;;;;;;;;5073664;28;20205;-81
2021/01/01 09:22:12;;;;;;;42.33;23.63;;;;;;;;;;5073809;28;20175;-81
2021/01/01 09:24:38;;;;;;;33.07;18.17;;;;;;;;;;5074171;28;20224;-81
2021/01/01 09:27:03;;;;;;;34.27;18.87;;;;;;;;;;5073756;28;20163;-81
2021/01/01 09:29:29;;;;;;;31.47;17.33;;;;;;;;;;5073276;28;20277;-80
2021/01/01 09:31:55;;;;;;;29.20;16.77;;;;;;;;;;5073802;28;20177;-80
2021/01/01 09:34:20;;;;;;;34.73;17.83;;;;;;;;;;5073507;28;20182;-80
2021/01/01 09:36:46;;;;;;;27.23;15.50;;;;;;;;;;5073053;28;20183;-80
2021/01/01 09:39:12;;;;;;;64.23;31.13;;;;;;;;;;5069017;28;20175;-80
2021/01/01 09:41:38;;;;;;;48.87;25.37;;;;;;;;;;5073450;28;20172;-80
2021/01/01 09:44:03;;;;;;;38.93;21.07;;;;;;;;;;5073427;28;20175;-80
2021/01/01 09:46:29;;;;;;;36.43;19.03;;;;;;;;;;5055802;28;20175;-80
2021/01/01 09:48:54;;;;;;;39.87;21.87;;;;;;;;;;5077192;28;20207;-81
2021/01/01 09:51:19;;;;;;;33.53;18.27;;;;;;;;;;5077620;28;20250;-81
2021/01/01 09:53:44;;;;;;;37.53;23.27;;;;;;;;;;5077251;28;20254;-81
2021/01/01 09:56:10;;;;;;;34.77;17.83;;;;;;;;;;5076931;28;20232;-81
2021/01/01 09:58:35;;;;;;;34.87;17.63;;;;;;;;;;5077437;28;20199;-80
2021/01/01 10:01:01;;;;;;;36.73;19.27;;;;;;;;;;5076966;28;20258;-81
2021/01/01 10:03:27;;;;;;;43.50;24.53;;;;;;;;;;5075373;28;20317;-80
2021/01/01 10:05:52;;;;;;;42.23;22.43;;;;;;;;;;5077126;28;20641;-80
2021/01/01 10:08:17;;;;;;;39.47;21.70;;;;;;;;;;5077671;28;20197;-80
2021/01/01 10:10:46;;;;;;;45.17;28.13;;;;;;;;;;5076522;28;20217;-81
2021/01/01 10:13:12;;;;;;;47.20;25.13;;;;;;;;;;5077261;28;20175;-81
2021/01/01 10:15:37;;;;;;;44.73;26.73;;;;;;;;;;5076973;28;20668;-81
2021/01/01 10:18:03;;;;;;;38.77;23.30;;;;;;;;;;5077425;28;20206;-81
2021/01/01 10:20:28;;;;;;;53.63;29.07;;;;;;;;;;5076703;28;20610;-81
2021/01/01 10:22:54;;;;;;;43.20;24.83;;;;;;;;;;5076694;28;20167;-81
2021/01/01 10:25:19;;;;;;;40.13;23.10;;;;;;;;;;5076545;28;20178;-81
2021/01/01 10:27:44;;;;;;;32.50;20.80;;;;;;;;;;5076618;28;20690;-81
2021/01/01 10:30:10;;;;;;;35.67;22.37;;;;;;;;;;5076689;28;20537;-81
2021/01/01 10:32:35;;;;;;;37.27;20.67;;;;;;;;;;5076182;28;20637;-81
2021/01/01 10:35:01;;;;;;;38.87;22.07;;;;;;;;;;5076856;28;20250;-81
2021/01/01 10:37:26;;;;;;;43.43;26.90;;;;;;;;;;5083377;28;20283;-80
2021/01/01 10:39:51;;;;;;;41.50;23.77;;;;;;;;;;5095802;28;20174;-81
2021/01/01 10:42:17;;;;;;;36.97;20.87;;;;;;;;;;5096123;28;20171;-80
2021/01/01 10:44:42;;;;;;;31.93;18.83;;;;;;;;;;5096292;28;20171;-80
2021/01/01 10:47:07;;;;;;;30.80;18.87;;;;;;;;;;5096303;28;20166;-80
2021/01/01 10:49:33;;;;;;;38.20;24.10;;;;;;;;;;5096334;28;20709;-80
2021/01/01 10:51:58;;;;;;;52.50;30.93;;;;;;;;;;5095868;28;20178;-81
2021/01/01 10:54:24;;;;;;;40.77;24.40;;;;;;;;;;5096644;28;20171;-80
2021/01/01 10:56:50;;;;;;;58.83;31.33;;;;;;;;;;5080272;28;20175;-81
2021/01/01 10:59:15;;;;;;;38.67;21.50;;;;;;;;;;5075031;28;20529;-81
2021/01/01 11:01:40;;;;;;;37.50;21.50;;;;;;;;;;5076241;28;20650;-81
2021/01/01 11:04:05;;;;;;;55.03;33.70;;;;;;;;;;5075799;28;20234;-80
2021/01/01 11:06:34;;;;;;;62.30;34.43;;;;;;;;;;5076212;28;20190;-81
2021/01/01 11:09:00;;;;;;;56.90;32.47;;;;;;;;;;5082248;28;20214;-81
2021/01/01 11:11:25;;;;;;;41.93;24.60;;;;;;;;;;5095843;28;20178;-81
2021/01/01 11:13:59;;;;;;;36.10;21.80;;;;;;;;;;5095752;28;20185;-81
2021/01/01 12:22:04;;;;;;;69.03;39.57;;;;;;;;;;5073756;28;20166;-81
2021/01/01 12:26:59;;;;;;;43.60;28.03;;;;;;;;;;5073384;28;20287;-81
2021/01/01 12:29:26;;;;;;;141.30;89.17;;;;;;;;;;5072887;28;20349;-80
2021/01/01 12:31:52;;;;;;;51.17;30.30;;;;;;;;;;5073204;28;20186;-82
2021/01/01 12:34:17;;;;;;;72.93;39.90;;;;;;;;;;5072775;28;20171;-81
2021/01/01 12:36:42;;;;;;;50.30;32.43;;;;;;;;;;5074306;28;20505;-81
2021/01/01 12:39:08;;;;;;;63.87;39.67;;;;;;;;;;5080138;28;20193;-81
2021/01/01 12:41:33;;;;;;;31.53;20.33;;;;;;;;;;5072847;28;20170;-81
2021/01/01 12:43:58;;;;;;;28.77;17.50;;;;;;;;;;5072898;28;20634;-81
2021/01/01 12:46:24;;;;;;;29.47;18.30;;;;;;;;;;5073102;28;20179;-82
2021/01/01 12:48:50;;;;;;;33.37;20.07;;;;;;;;;;5055201;28;20206;-81
2021/01/01 12:51:15;;;;;;;32.70;20.80;;;;;;;;;;5055067;28;20207;-82
2021/01/01 12:53:41;;;;;;;23.30;15.80;;;;;;;;;;5054112;28;20253;-81
2021/01/01 12:56:07;;;;;;;23.73;16.07;;;;;;;;;;5069902;28;20549;-82
2021/01/01 12:58:32;;;;;;;31.50;20.27;;;;;;;;;;5072892;28;20260;-82
2021/01/01 13:00:58;;;;;;;42.17;28.23;;;;;;;;;;5072756;28;20265;-81
2021/01/01 13:03:23;;;;;;;61.03;38.93;;;;;;;;;;5062817;28;20301;-81
2021/01/01 13:05:48;;;;;;;75.03;48.77;;;;;;;;;;5062530;28;20176;-80
2021/01/01 13:08:13;;;;;;;68.27;43.80;;;;;;;;;;5056571;28;20642;-81
2021/01/01 13:10:39;;;;;;;35.47;23.63;;;;;;;;;;5068341;28;20198;-82
2021/01/01 13:13:04;;;;;;;31.70;19.83;;;;;;;;;;5062986;28;20175;-81
2021/01/01 13:15:30;;;;;;;29.17;19.23;;;;;;;;;;5062640;28;20194;-81
2021/01/01 13:17:55;;;;;;;37.63;24.30;;;;;;;;;;5064712;28;21222;-81
2021/01/01 13:20:20;;;;;;;36.80;22.93;;;;;;;;;;5062720;28;20163;-82
2021/01/01 13:22:46;;;;;;;45.93;32.53;;;;;;;;;;5059843;28;20168;-82
2021/01/01 13:25:15;;;;;;;40.83;26.97;;;;;;;;;;5060100;28;20276;-82
2021/01/01 13:27:40;;;;;;;39.23;26.60;;;;;;;;;;5058518;28;20633;-81
2021/01/01 13:30:06;;;;;;;42.97;26.27;;;;;;;;;;5059351;28;20171;-81
2021/01/01 13:32:31;;;;;;;43.03;28.77;;;;;;;;;;5060452;28;20167;-82
2021/01/01 13:34:56;;;;;;;38.40;24.10;;;;;;;;;;5060893;28;20717;-81
2021/01/01 13:37:22;;;;;;;38.50;24.50;;;;;;;;;;5057175;28;20626;-82
2021/01/01 13:39:47;;;;;;;39.80;25.43;;;;;;;;;;5064629;28;20290;-81
2021/01/01 13:42:17;;;;;;;48.87;31.63;;;;;;;;;;5059390;28;20178;-81
2021/01/01 13:44:42;;;;;;;45.07;29.53;;;;;;;;;;5068634;28;20246;-82
2021/01/01 13:47:07;;;;;;;38.33;25.33;;;;;;;;;;5057981;28;20214;-81
2021/01/01 13:49:33;;;;;;;44.47;27.73;;;;;;;;;;5058782;28;20192;-81
2021/01/01 13:52:00;;;;;;;45.67;29.87;;;;;;;;;;5059908;28;20179;-81
2021/01/01 13:54:25;;;;;;;45.37;26.50;;;;;;;;;;5045307;28;20181;-82
2021/01/01 13:56:51;;;;;;;40.77;24.60;;;;;;;;;;5063523;28;20253;-82
2021/01/01 13:59:18;;;;;;;31.30;21.93;;;;;;;;;;5057916;28;20179;-82
2021/01/01 14:01:43;;;;;;;45.20;29.00;;;;;;;;;;5058571;28;20176;-81
2021/01/01 14:04:09;;;;;;;35.17;22.10;;;;;;;;;;5060602;28;20219;-83
2021/01/01 14:06:34;;;;;;;45.90;28.83;;;;;;;;;;5043496;28;20236;-81
2021/01/01 14:09:00;;;;;;;44.27;28.57;;;;;;;;;;5057990;28;20529;-82
2021/01/01 14:11:26;;;;;;;37.50;23.03;;;;;;;;;;5058941;28;20266;-82
2021/01/01 14:13:51;;;;;;;41.07;26.97;;;;;;;;;;5059783;28;20266;-81
2021/01/01 14:16:16;;;;;;;35.47;23.83;;;;;;;;;;5057910;28;20631;-82
2021/01/01 14:18:42;;;;;;;35.00;21.33;;;;;;;;;;5057887;28;20200;-81
2021/01/01 14:21:07;;;;;;;47.97;29.33;;;;;;;;;;5059104;28;20187;-82
2021/01/01 14:23:33;;;;;;;38.93;24.30;;;;;;;;;;5058129;28;20661;-82
2021/01/01 14:25:58;;;;;;;53.47;33.50;;;;;;;;;;5059788;28;20239;-82
2021/01/01 14:28:23;;;;;;;55.93;33.50;;;;;;;;;;5057004;28;20631;-82
2021/01/01 14:30:49;;;;;;;63.57;36.00;;;;;;;;;;5059037;28;20178;-82
2021/01/01 14:33:14;;;;;;;61.77;38.77;;;;;;;;;;5061417;28;20168;-82
2021/01/01 14:35:39;;;;;;;56.13;32.67;;;;;;;;;;5062607;28;20178;-82
2021/01/01 14:38:05;;;;;;;42.17;24.47;;;;;;;;;;5062539;28;20203;-82
2021/01/01 14:40:30;;;;;;;34.53;19.57;;;;;;;;;;5062205;28;20186;-82
2021/01/01 14:42:56;;;;;;;31.10;20.33;;;;;;;;;;5063569;28;20178;-81
2021/01/01 14:45:21;;;;;;;33.67;20.07;;;;;;;;;;5072955;28;20671;-81
2021/01/01 14:47:47;;;;;;;41.67;23.90;;;;;;;;;;5071743;28;20178;-82
2021/01/01 14:50:15;;;;;;;40.27;25.13;;;;;;;;;;5072974;28;20203;-82
2021/01/01 14:52:40;;;;;;;41.73;25.90;;;;;;;;;;5072000;28;20190;-81
2021/01/01 14:55:07;;;;;;;83.63;50.53;;;;;;;;;;5054768;28;20187;-82
2021/01/01 14:57:32;;;;;;;56.33;34.77;;;;;;;;;;5053913;28;20648;-81
2021/01/01 14:59:58;;;;;;;54.87;33.47;;;;;;;;;;5072593;28;20172;-82
2021/01/01 15:02:23;;;;;;;54.10;33.37;;;;;;;;;;5071795;28;20280;-82
2021/01/01 15:04:48;;;;;;;62.20;38.63;;;;;;;;;;5073411;28;20229;-81
2021/01/01 15:07:14;;;;;;;81.03;48.27;;;;;;;;;;5071714;28;20179;-81
2021/01/01 15:09:39;;;;;;;62.70;39.03;;;;;;;;;;5072164;28;20661;-82
2021/01/01 15:12:05;;;;;;;51.33;31.40;;;;;;;;;;5071951;28;20210;-81
2021/01/01 15:14:30;;;;;;;40.70;25.37;;;;;;;;;;5072740;28;20179;-82
2021/01/01 15:16:55;;;;;;;37.53;21.67;;;;;;;;;;5071294;28;20225;-81